sensor_id;sensor_type;location;lat;lon;timestamp;temperature;humidity
20035;DHT22;10178;48.034;9.800;2023-05-10T00:01:46;14.80;99.90
20035;DHT22;10178;48.034;9.800;2023-05-10T00:04:11;14.70;99.90
20035;DHT22;10178;48.034;9.800;2023-05-10T00:06:37;14.20;99.90
20035;DHT22;10178;48.034;9.800;2023-05-10T00:09:03;14.50;99.90
20035;DHT22;10178;48.034;9.800;2023-05-10T00:11:29;14.40;99.90
20035;DHT22;10178;48.034;9.800;2023-05-10T00:13:54;14.30;99.90
20035;DHT22;10178;48.034;9.800;2023-05-10T00:16:20;14.50;99.90
20035;DHT22;10178;48.034;9.800;2023-05-10T00:18:45;14.90;99.90
20035;DHT22;10178;48.034;9.800;2023-05-10T00:21:11;14.80;99.90
20035;DHT22;10178;48.034;9.800;2023-05-10T00:23:37;14.60;99.90
20035;DHT22;10178;48.034;9.800;2023-05-10T00:26:03;14.90;99.90
20035;DHT22;10178;48.034;9.800;2023-05-10T00:28:28;15.00;99.90
20035;DHT22;10178;48.034;9.800;2023-05-10T00:30:54;15.10;99.90
20035;DHT22;10178;48.034;9.800;2023-05-10T00:33:20;15.20;99.90
20035;DHT22;10178;48.034;9.800;2023-05-10T00:35:46;15.30;99.90
20035;DHT22;10178;48.034;9.800;2023-05-10T00:38:12;15.20;99.90
20035;DHT22;10178;48.034;9.800;2023-05-10T00:40:37;15.30;99.90
20035;DHT22;10178;48.034;9.800;2023-05-10T00:43:03;15.20;99.90
20035;DHT22;10178;48.034;9.800;2023-05-10T00:45:31;15.50;99.90
20035;DHT22;10178;48.034;9.800;2023-05-10T00:47:58;15.70;99.90
20035;DHT22;10178;48.034;9.800;2023-05-10T00:50:25;15.50;99.90
20035;DHT22;10178;48.034;9.800;2023-05-10T00:52:51;15.50;99.90
20035;DHT22;10178;48.034;9.800;2023-05-10T00:55:17;15.50;99.90
20035;DHT22;10178;48.034;9.800;2023-05-10T00:57:43;15.60;99.90
20035;DHT22;10178;48.034;9.800;2023-05-10T01:00:10;15.60;99.90
20035;DHT22;10178;48.034;9.800;2023-05-10T01:02:36;15.40;99.90
20035;DHT22;10178;48.034;9.800;2023-05-10T01:05:03;15.60;99.90
20035;DHT22;10178;48.034;9.800;2023-05-10T01:07:29;15.00;99.90
20035;DHT22;10178;48.034;9.800;2023-05-10T01:09:55;14.70;99.90
20035;DHT22;10178;48.034;9.800;2023-05-10T01:12:21;14.80;99.90
20035;DHT22;10178;48.034;9.800;2023-05-10T01:14:47;15.10;99.90
20035;DHT22;10178;48.034;9.800;2023-05-10T01:17:13;15.20;99.90
20035;DHT22;10178;48.034;9.800;2023-05-10T01:19:39;15.50;99.90
20035;DHT22;10178;48.034;9.800;2023-05-10T01:28:23;14.60;99.90
20035;DHT22;10178;48.034;9.800;2023-05-10T01:36:38;15.00;99.90
20035;DHT22;10178;48.034;9.800;2023-05-10T01:39:15;15.20;99.90
20035;DHT22;10178;48.034;9.800;2023-05-10T01:45:06;15.40;99.90
20035;DHT22;10178;48.034;9.800;2023-05-10T01:47:44;15.40;99.90
20035;DHT22;10178;48.034;9.800;2023-05-10T01:50:15;15.60;99.90
20035;DHT22;10178;48.034;9.800;2023-05-10T01:52:43;15.30;99.90
20035;DHT22;10178;48.034;9.800;2023-05-10T01:55:16;15.20;99.90
20035;DHT22;10178;48.034;9.800;2023-05-10T01:57:44;15.30;99.90
20035;DHT22;10178;48.034;9.800;2023-05-10T02:00:12;15.00;99.90
20035;DHT22;10178;48.034;9.800;2023-05-10T02:02:40;15.00;99.90
20035;DHT22;10178;48.034;9.800;2023-05-10T02:05:08;15.40;99.90
20035;DHT22;10178;48.034;9.800;2023-05-10T02:07:36;15.30;99.90
20035;DHT22;10178;48.034;9.800;2023-05-10T02:10:04;15.30;99.90
20035;DHT22;10178;48.034;9.800;2023-05-10T02:12:32;15.60;99.90
20035;DHT22;10178;48.034;9.800;2023-05-10T02:15:04;15.70;99.90
20035;DHT22;10178;48.034;9.800;2023-05-10T02:17:32;15.40;99.90
20035;DHT22;10178;48.034;9.800;2023-05-10T02:19:59;15.50;99.90
20035;DHT22;10178;48.034;9.800;2023-05-10T02:22:27;15.50;99.90
20035;DHT22;10178;48.034;9.800;2023-05-10T02:24:55;15.70;99.90
20035;DHT22;10178;48.034;9.800;2023-05-10T02:27:24;15.60;99.90
20035;DHT22;10178;48.034;9.800;2023-05-10T02:29:51;15.60;99.90
20035;DHT22;10178;48.034;9.800;2023-05-10T02:32:17;15.50;99.90
20035;DHT22;10178;48.034;9.800;2023-05-10T02:34:43;15.60;99.90
20035;DHT22;10178;48.034;9.800;2023-05-10T02:37:13;15.20;99.90
20035;DHT22;10178;48.034;9.800;2023-05-10T02:39:40;15.30;99.90
20035;DHT22;10178;48.034;9.800;2023-05-10T02:42:11;15.10;99.90
20035;DHT22;10178;48.034;9.800;2023-05-10T02:44:41;15.20;99.90
20035;DHT22;10178;48.034;9.800;2023-05-10T02:47:07;15.20;99.90
20035;DHT22;10178;48.034;9.800;2023-05-10T02:49:33;15.20;99.90
20035;DHT22;10178;48.034;9.800;2023-05-10T02:52:01;15.30;99.90
20035;DHT22;10178;48.034;9.800;2023-05-10T02:54:33;15.40;99.90
20035;DHT22;10178;48.034;9.800;2023-05-10T02:57:02;15.20;99.90
20035;DHT22;10178;48.034;9.800;2023-05-10T02:59:29;15.30;99.90
20035;DHT22;10178;48.034;9.800;2023-05-10T03:01:54;15.20;99.90
20035;DHT22;10178;48.034;9.800;2023-05-10T03:04:20;15.10;99.90
20035;DHT22;10178;48.034;9.800;2023-05-10T03:06:46;15.00;99.90
20035;DHT22;10178;48.034;9.800;2023-05-10T03:09:12;15.10;99.90
20035;DHT22;10178;48.034;9.800;2023-05-10T03:17:10;14.80;99.90
20035;DHT22;10178;48.034;9.800;2023-05-10T03:19:53;14.80;99.90
20035;DHT22;10178;48.034;9.800;2023-05-10T03:22:29;14.70;99.90
20035;DHT22;10178;48.034;9.800;2023-05-10T03:24:56;14.50;99.90
20035;DHT22;10178;48.034;9.800;2023-05-10T03:27:26;14.30;99.90
20035;DHT22;10178;48.034;9.800;2023-05-10T03:29:53;14.40;99.90
20035;DHT22;10178;48.034;9.800;2023-05-10T03:32:20;14.30;99.90
20035;DHT22;10178;48.034;9.800;2023-05-10T03:34:45;14.60;99.90
20035;DHT22;10178;48.034;9.800;2023-05-10T03:37:11;14.60;99.90
20035;DHT22;10178;48.034;9.800;2023-05-10T03:39:37;14.80;99.90
20035;DHT22;10178;48.034;9.800;2023-05-10T03:42:02;14.70;99.90
20035;DHT22;10178;48.034;9.800;2023-05-10T03:44:28;14.80;99.90
20035;DHT22;10178;48.034;9.800;2023-05-10T03:46:54;15.00;99.90
20035;DHT22;10178;48.034;9.800;2023-05-10T03:49:19;14.90;99.90
20035;DHT22;10178;48.034;9.800;2023-05-10T03:51:45;14.90;99.90
20035;DHT22;10178;48.034;9.800;2023-05-10T03:54:10;15.00;99.90
20035;DHT22;10178;48.034;9.800;2023-05-10T03:56:36;15.00;99.90
20035;DHT22;10178;48.034;9.800;2023-05-10T03:59:02;15.00;99.90
20035;DHT22;10178;48.034;9.800;2023-05-10T04:01:33;14.90;99.90
20035;DHT22;10178;48.034;9.800;2023-05-10T04:03:58;14.70;99.90
20035;DHT22;10178;48.034;9.800;2023-05-10T04:06:24;14.90;99.90
20035;DHT22;10178;48.034;9.800;2023-05-10T04:08:50;14.60;99.90
20035;DHT22;10178;48.034;9.800;2023-05-10T04:11:15;14.70;99.90
20035;DHT22;10178;48.034;9.800;2023-05-10T04:13:41;14.60;99.90
20035;DHT22;10178;48.034;9.800;2023-05-10T04:16:08;14.10;99.90
20035;DHT22;10178;48.034;9.800;2023-05-10T04:18:34;13.40;99.90
20035;DHT22;10178;48.034;9.800;2023-05-10T04:21:00;13.20;99.90
20035;DHT22;10178;48.034;9.800;2023-05-10T04:23:27;12.90;99.90
20035;DHT22;10178;48.034;9.800;2023-05-10T04:25:58;13.50;99.90
20035;DHT22;10178;48.034;9.800;2023-05-10T04:28:24;14.00;99.90
20035;DHT22;10178;48.034;9.800;2023-05-10T04:30:49;14.50;99.90
20035;DHT22;10178;48.034;9.800;2023-05-10T04:33:15;14.70;99.90
20035;DHT22;10178;48.034;9.800;2023-05-10T04:35:40;14.50;99.90
20035;DHT22;10178;48.034;9.800;2023-05-10T04:38:06;14.10;99.90
20035;DHT22;10178;48.034;9.800;2023-05-10T04:40:32;13.90;99.90
20035;DHT22;10178;48.034;9.800;2023-05-10T04:42:57;13.90;99.90
20035;DHT22;10178;48.034;9.800;2023-05-10T04:45:23;14.10;99.90
20035;DHT22;10178;48.034;9.800;2023-05-10T04:47:48;14.40;99.90
20035;DHT22;10178;48.034;9.800;2023-05-10T04:50:14;14.50;99.90
20035;DHT22;10178;48.034;9.800;2023-05-10T04:52:40;14.80;99.90
20035;DHT22;10178;48.034;9.800;2023-05-10T04:55:06;15.00;99.90
20035;DHT22;10178;48.034;9.800;2023-05-10T04:57:34;15.20;99.90
20035;DHT22;10178;48.034;9.800;2023-05-10T05:00:00;14.60;99.90
20035;DHT22;10178;48.034;9.800;2023-05-10T05:02:25;14.70;99.90
20035;DHT22;10178;48.034;9.800;2023-05-10T05:04:51;14.70;99.90
20035;DHT22;10178;48.034;9.800;2023-05-10T05:07:17;14.70;99.90
20035;DHT22;10178;48.034;9.800;2023-05-10T05:09:42;14.70;99.90
20035;DHT22;10178;48.034;9.800;2023-05-10T05:12:08;14.60;99.90
20035;DHT22;10178;48.034;9.800;2023-05-10T05:14:39;14.30;99.90
20035;DHT22;10178;48.034;9.800;2023-05-10T05:17:05;14.20;99.90
20035;DHT22;10178;48.034;9.800;2023-05-10T05:19:31;14.30;99.90
20035;DHT22;10178;48.034;9.800;2023-05-10T05:21:56;14.10;99.90
20035;DHT22;10178;48.034;9.800;2023-05-10T05:24:22;14.20;99.90
20035;DHT22;10178;48.034;9.800;2023-05-10T05:26:48;14.20;99.90
20035;DHT22;10178;48.034;9.800;2023-05-10T05:29:14;14.10;99.90
20035;DHT22;10178;48.034;9.800;2023-05-10T05:31:39;14.20;99.90
20035;DHT22;10178;48.034;9.800;2023-05-10T05:34:05;14.60;99.90
20035;DHT22;10178;48.034;9.800;2023-05-10T05:36:31;14.90;99.90
20035;DHT22;10178;48.034;9.800;2023-05-10T05:38:57;15.10;99.90
20035;DHT22;10178;48.034;9.800;2023-05-10T05:41:22;15.40;99.90
20035;DHT22;10178;48.034;9.800;2023-05-10T05:43:49;15.20;99.90
20035;DHT22;10178;48.034;9.800;2023-05-10T05:46:15;15.00;99.90
20035;DHT22;10178;48.034;9.800;2023-05-10T05:48:41;14.70;99.90
20035;DHT22;10178;48.034;9.800;2023-05-10T05:51:06;14.50;99.90
20035;DHT22;10178;48.034;9.800;2023-05-10T05:53:32;14.60;99.90
20035;DHT22;10178;48.034;9.800;2023-05-10T05:55:58;14.70;99.90
20035;DHT22;10178;48.034;9.800;2023-05-10T05:58:25;14.80;99.90
20035;DHT22;10178;48.034;9.800;2023-05-10T06:00:51;14.20;99.90
20035;DHT22;10178;48.034;9.800;2023-05-10T06:03:17;14.20;99.90
20035;DHT22;10178;48.034;9.800;2023-05-10T06:05:43;14.30;99.90
20035;DHT22;10178;48.034;9.800;2023-05-10T06:08:09;14.60;99.90
20035;DHT22;10178;48.034;9.800;2023-05-10T06:10:35;14.60;99.90
20035;DHT22;10178;48.034;9.800;2023-05-10T06:13:01;14.50;99.90
20035;DHT22;10178;48.034;9.800;2023-05-10T06:15:27;14.40;99.90
20035;DHT22;10178;48.034;9.800;2023-05-10T06:17:53;14.50;99.90
20035;DHT22;10178;48.034;9.800;2023-05-10T06:20:18;14.90;99.90
20035;DHT22;10178;48.034;9.800;2023-05-10T06:22:44;14.60;99.90
20035;DHT22;10178;48.034;9.800;2023-05-10T06:25:10;14.50;99.90
20035;DHT22;10178;48.034;9.800;2023-05-10T06:27:36;14.50;99.90
20035;DHT22;10178;48.034;9.800;2023-05-10T06:30:02;14.60;99.90
20035;DHT22;10178;48.034;9.800;2023-05-10T06:32:28;14.90;99.90
20035;DHT22;10178;48.034;9.800;2023-05-10T06:34:53;15.10;99.90
20035;DHT22;10178;48.034;9.800;2023-05-10T06:37:19;15.20;99.90
20035;DHT22;10178;48.034;9.800;2023-05-10T06:39:45;15.00;99.90
20035;DHT22;10178;48.034;9.800;2023-05-10T06:42:11;15.10;99.90
20035;DHT22;10178;48.034;9.800;2023-05-10T06:44:36;15.10;99.90
20035;DHT22;10178;48.034;9.800;2023-05-10T06:47:02;15.10;99.90
20035;DHT22;10178;48.034;9.800;2023-05-10T06:49:28;15.40;99.90
20035;DHT22;10178;48.034;9.800;2023-05-10T06:52:00;15.60;99.90
20035;DHT22;10178;48.034;9.800;2023-05-10T06:54:26;15.50;99.90
20035;DHT22;10178;48.034;9.800;2023-05-10T06:56:51;15.30;99.90
20035;DHT22;10178;48.034;9.800;2023-05-10T06:59:17;15.20;99.90
20035;DHT22;10178;48.034;9.800;2023-05-10T07:01:44;15.20;99.90
20035;DHT22;10178;48.034;9.800;2023-05-10T07:04:10;15.00;99.90
20035;DHT22;10178;48.034;9.800;2023-05-10T07:06:35;15.30;99.90
20035;DHT22;10178;48.034;9.800;2023-05-10T07:09:01;15.30;99.90
20035;DHT22;10178;48.034;9.800;2023-05-10T07:11:27;15.00;99.90
20035;DHT22;10178;48.034;9.800;2023-05-10T07:13:52;14.80;99.90
20035;DHT22;10178;48.034;9.800;2023-05-10T07:16:18;14.70;99.90
20035;DHT22;10178;48.034;9.800;2023-05-10T07:18:44;14.80;99.90
20035;DHT22;10178;48.034;9.800;2023-05-10T07:21:09;15.00;99.90
20035;DHT22;10178;48.034;9.800;2023-05-10T07:23:35;15.10;99.90
20035;DHT22;10178;48.034;9.800;2023-05-10T07:26:00;15.30;99.90
20035;DHT22;10178;48.034;9.800;2023-05-10T07:28:27;15.40;99.90
20035;DHT22;10178;48.034;9.800;2023-05-10T07:30:53;15.30;99.90
20035;DHT22;10178;48.034;9.800;2023-05-10T07:33:18;15.30;99.90
20035;DHT22;10178;48.034;9.800;2023-05-10T07:35:44;15.40;99.90
20035;DHT22;10178;48.034;9.800;2023-05-10T07:38:10;15.60;99.90
20035;DHT22;10178;48.034;9.800;2023-05-10T07:40:38;15.70;99.90
20035;DHT22;10178;48.034;9.800;2023-05-10T07:43:04;15.80;99.90
20035;DHT22;10178;48.034;9.800;2023-05-10T07:45:30;15.80;99.90
20035;DHT22;10178;48.034;9.800;2023-05-10T07:47:55;15.50;99.90
20035;DHT22;10178;48.034;9.800;2023-05-10T07:50:21;15.50;99.90
20035;DHT22;10178;48.034;9.800;2023-05-10T07:52:47;15.20;99.90
20035;DHT22;10178;48.034;9.800;2023-05-10T07:55:13;15.20;99.90
20035;DHT22;10178;48.034;9.800;2023-05-10T07:57:39;15.40;99.90
20035;DHT22;10178;48.034;9.800;2023-05-10T08:00:05;15.50;99.90
20035;DHT22;10178;48.034;9.800;2023-05-10T08:02:32;15.30;99.90
20035;DHT22;10178;48.034;9.800;2023-05-10T08:04:57;15.40;99.90
20035;DHT22;10178;48.034;9.800;2023-05-10T08:07:24;15.40;99.90
20035;DHT22;10178;48.034;9.800;2023-05-10T08:09:50;15.50;99.90
20035;DHT22;10178;48.034;9.800;2023-05-10T08:12:16;15.70;99.90
20035;DHT22;10178;48.034;9.800;2023-05-10T08:14:42;15.60;99.90
20035;DHT22;10178;48.034;9.800;2023-05-10T08:17:08;15.70;99.90
20035;DHT22;10178;48.034;9.800;2023-05-10T08:19:33;15.70;99.90
20035;DHT22;10178;48.034;9.800;2023-05-10T08:21:59;15.90;99.90
20035;DHT22;10178;48.034;9.800;2023-05-10T08:24:25;15.90;99.90
20035;DHT22;10178;48.034;9.800;2023-05-10T08:26:50;16.00;99.90
20035;DHT22;10178;48.034;9.800;2023-05-10T08:29:16;15.80;99.90
20035;DHT22;10178;48.034;9.800;2023-05-10T08:31:42;15.80;99.90
20035;DHT22;10178;48.034;9.800;2023-05-10T08:34:07;15.70;99.90
20035;DHT22;10178;48.034;9.800;2023-05-10T08:36:33;15.70;99.90
20035;DHT22;10178;48.034;9.800;2023-05-10T08:38:59;15.80;99.90
20035;DHT22;10178;48.034;9.800;2023-05-10T08:41:24;15.90;99.90
20035;DHT22;10178;48.034;9.800;2023-05-10T08:43:55;15.60;99.90
20035;DHT22;10178;48.034;9.800;2023-05-10T08:46:22;15.30;99.90
20035;DHT22;10178;48.034;9.800;2023-05-10T08:48:50;15.40;99.90
20035;DHT22;10178;48.034;9.800;2023-05-10T08:51:23;15.30;99.90
20035;DHT22;10178;48.034;9.800;2023-05-10T08:53:52;15.30;99.90
20035;DHT22;10178;48.034;9.800;2023-05-10T08:56:18;15.30;99.90
20035;DHT22;10178;48.034;9.800;2023-05-10T08:58:43;15.00;99.90
20035;DHT22;10178;48.034;9.800;2023-05-10T09:01:09;14.90;99.90
20035;DHT22;10178;48.034;9.800;2023-05-10T09:03:38;14.90;99.90
20035;DHT22;10178;48.034;9.800;2023-05-10T09:06:04;14.90;99.90
20035;DHT22;10178;48.034;9.800;2023-05-10T09:08:30;15.10;99.90
20035;DHT22;10178;48.034;9.800;2023-05-10T09:10:56;15.10;99.90
20035;DHT22;10178;48.034;9.800;2023-05-10T09:13:23;15.00;99.90
20035;DHT22;10178;48.034;9.800;2023-05-10T09:15:49;15.10;99.90
20035;DHT22;10178;48.034;9.800;2023-05-10T09:18:16;15.30;99.90
20035;DHT22;10178;48.034;9.800;2023-05-10T09:20:41;15.30;99.90
20035;DHT22;10178;48.034;9.800;2023-05-10T09:23:07;15.40;99.90
20035;DHT22;10178;48.034;9.800;2023-05-10T09:25:33;15.50;99.90
20035;DHT22;10178;48.034;9.800;2023-05-10T09:27:59;15.70;99.90
20035;DHT22;10178;48.034;9.800;2023-05-10T09:30:29;15.80;99.90
20035;DHT22;10178;48.034;9.800;2023-05-10T09:32:56;15.90;99.90
20035;DHT22;10178;48.034;9.800;2023-05-10T09:35:24;15.90;99.90
20035;DHT22;10178;48.034;9.800;2023-05-10T09:37:54;15.70;99.90
20035;DHT22;10178;48.034;9.800;2023-05-10T09:40:22;15.80;99.90
20035;DHT22;10178;48.034;9.800;2023-05-10T09:43:05;16.00;99.90
20035;DHT22;10178;48.034;9.800;2023-05-10T09:45:33;16.30;99.90
20035;DHT22;10178;48.034;9.800;2023-05-10T09:48:00;16.50;99.90
20035;DHT22;10178;48.034;9.800;2023-05-10T09:50:27;16.80;99.90
20035;DHT22;10178;48.034;9.800;2023-05-10T09:52:55;17.00;99.90
20035;DHT22;10178;48.034;9.800;2023-05-10T09:55:43;17.20;99.90
20035;DHT22;10178;48.034;9.800;2023-05-10T09:58:15;17.30;99.90
20035;DHT22;10178;48.034;9.800;2023-05-10T10:00:42;17.40;99.90
20035;DHT22;10178;48.034;9.800;2023-05-10T10:03:16;17.40;99.90
20035;DHT22;10178;48.034;9.800;2023-05-10T10:05:45;17.40;99.90
20035;DHT22;10178;48.034;9.800;2023-05-10T10:08:12;17.20;99.90
20035;DHT22;10178;48.034;9.800;2023-05-10T10:10:38;17.30;99.90
20035;DHT22;10178;48.034;9.800;2023-05-10T10:13:09;17.40;99.90
20035;DHT22;10178;48.034;9.800;2023-05-10T10:15:35;17.40;99.90
20035;DHT22;10178;48.034;9.800;2023-05-10T10:18:01;17.60;99.90
20035;DHT22;10178;48.034;9.800;2023-05-10T10:20:28;17.70;99.90
20035;DHT22;10178;48.034;9.800;2023-05-10T10:22:54;17.60;99.90
20035;DHT22;10178;48.034;9.800;2023-05-10T10:25:20;17.60;99.90
20035;DHT22;10178;48.034;9.800;2023-05-10T10:35:55;17.50;99.90
20035;DHT22;10178;48.034;9.800;2023-05-10T10:38:23;17.60;99.90
20035;DHT22;10178;48.034;9.800;2023-05-10T10:41:09;17.60;99.90
20035;DHT22;10178;48.034;9.800;2023-05-10T10:43:35;17.40;99.90
20035;DHT22;10178;48.034;9.800;2023-05-10T10:46:14;17.50;99.90
20035;DHT22;10178;48.034;9.800;2023-05-10T10:49:08;17.50;99.90
20035;DHT22;10178;48.034;9.800;2023-05-10T10:51:38;17.40;99.90
20035;DHT22;10178;48.034;9.800;2023-05-10T10:54:11;16.90;99.90
20035;DHT22;10178;48.034;9.800;2023-05-10T10:56:37;16.60;99.90
20035;DHT22;10178;48.034;9.800;2023-05-10T10:59:03;15.20;99.90
20035;DHT22;10178;48.034;9.800;2023-05-10T11:01:33;14.30;99.90
20035;DHT22;10178;48.034;9.800;2023-05-10T11:06:35;13.60;99.90
20035;DHT22;10178;48.034;9.800;2023-05-10T11:09:08;13.60;99.90
20035;DHT22;10178;48.034;9.800;2023-05-10T11:11:35;14.50;99.90
20035;DHT22;10178;48.034;9.800;2023-05-10T11:14:06;14.20;99.90
20035;DHT22;10178;48.034;9.800;2023-05-10T11:16:44;13.30;99.90
20035;DHT22;10178;48.034;9.800;2023-05-10T11:19:12;13.10;99.90
20035;DHT22;10178;48.034;9.800;2023-05-10T11:24:31;14.50;99.90
20035;DHT22;10178;48.034;9.800;2023-05-10T11:26:58;15.30;99.90
20035;DHT22;10178;48.034;9.800;2023-05-10T11:29:29;15.80;99.90
20035;DHT22;10178;48.034;9.800;2023-05-10T11:31:58;16.10;99.90
20035;DHT22;10178;48.034;9.800;2023-05-10T11:34:25;15.70;99.90
20035;DHT22;10178;48.034;9.800;2023-05-10T11:36:52;15.30;99.90
20035;DHT22;10178;48.034;9.800;2023-05-10T11:39:19;15.60;99.90
20035;DHT22;10178;48.034;9.800;2023-05-10T11:41:48;15.90;99.90
20035;DHT22;10178;48.034;9.800;2023-05-10T11:44:14;16.00;99.90
20035;DHT22;10178;48.034;9.800;2023-05-10T11:46:40;16.20;99.90
20035;DHT22;10178;48.034;9.800;2023-05-10T11:49:07;16.40;99.90
20035;DHT22;10178;48.034;9.800;2023-05-10T11:51:36;16.50;99.90
20035;DHT22;10178;48.034;9.800;2023-05-10T11:54:06;15.70;99.90
20035;DHT22;10178;48.034;9.800;2023-05-10T11:56:32;16.10;99.90
20035;DHT22;10178;48.034;9.800;2023-05-10T11:58:59;16.30;99.90
20035;DHT22;10178;48.034;9.800;2023-05-10T12:01:27;16.70;99.90
20035;DHT22;10178;48.034;9.800;2023-05-10T12:03:55;16.80;99.90
20035;DHT22;10178;48.034;9.800;2023-05-10T12:06:26;16.60;99.90
20035;DHT22;10178;48.034;9.800;2023-05-10T12:08:53;16.70;99.90
20035;DHT22;10178;48.034;9.800;2023-05-10T12:11:19;16.80;99.90
20035;DHT22;10178;48.034;9.800;2023-05-10T12:13:47;16.00;99.90
20035;DHT22;10178;48.034;9.800;2023-05-10T12:16:28;15.70;99.90
20035;DHT22;10178;48.034;9.800;2023-05-10T12:18:56;16.10;99.90
20035;DHT22;10178;48.034;9.800;2023-05-10T12:21:23;16.50;99.90
20035;DHT22;10178;48.034;9.800;2023-05-10T12:23:51;16.70;99.90
20035;DHT22;10178;48.034;9.800;2023-05-10T12:26:17;16.80;99.90
20035;DHT22;10178;48.034;9.800;2023-05-10T12:28:42;16.70;99.90
20035;DHT22;10178;48.034;9.800;2023-05-10T12:31:08;16.40;99.90
20035;DHT22;10178;48.034;9.800;2023-05-10T12:33:38;16.60;99.90
20035;DHT22;10178;48.034;9.800;2023-05-10T12:36:08;16.80;99.90
20035;DHT22;10178;48.034;9.800;2023-05-10T12:38:39;16.80;99.90
20035;DHT22;10178;48.034;9.800;2023-05-10T12:41:15;16.20;99.90
20035;DHT22;10178;48.034;9.800;2023-05-10T12:43:42;15.40;99.90
20035;DHT22;10178;48.034;9.800;2023-05-10T12:46:13;15.70;99.90
20035;DHT22;10178;48.034;9.800;2023-05-10T12:48:40;15.20;99.90
20035;DHT22;10178;48.034;9.800;2023-05-10T12:51:09;14.90;99.90
20035;DHT22;10178;48.034;9.800;2023-05-10T12:53:37;14.60;99.90
20035;DHT22;10178;48.034;9.800;2023-05-10T12:56:03;14.20;99.90
20035;DHT22;10178;48.034;9.800;2023-05-10T12:58:29;14.70;99.90
20035;DHT22;10178;48.034;9.800;2023-05-10T13:00:54;15.20;99.90
20035;DHT22;10178;48.034;9.800;2023-05-10T13:03:21;15.00;99.90
20035;DHT22;10178;48.034;9.800;2023-05-10T13:05:47;14.80;99.90
20035;DHT22;10178;48.034;9.800;2023-05-10T13:08:13;15.00;99.90
20035;DHT22;10178;48.034;9.800;2023-05-10T13:10:39;15.50;99.90
20035;DHT22;10178;48.034;9.800;2023-05-10T13:13:04;15.80;99.90
20035;DHT22;10178;48.034;9.800;2023-05-10T13:15:30;15.20;99.90
20035;DHT22;10178;48.034;9.800;2023-05-10T13:17:56;15.40;99.90
20035;DHT22;10178;48.034;9.800;2023-05-10T13:20:22;15.90;99.90
20035;DHT22;10178;48.034;9.800;2023-05-10T13:22:47;16.20;99.90
20035;DHT22;10178;48.034;9.800;2023-05-10T13:25:13;16.30;99.90
20035;DHT22;10178;48.034;9.800;2023-05-10T13:27:39;16.00;99.90
20035;DHT22;10178;48.034;9.800;2023-05-10T13:30:05;16.10;99.90
20035;DHT22;10178;48.034;9.800;2023-05-10T13:32:31;16.40;99.90
20035;DHT22;10178;48.034;9.800;2023-05-10T13:34:57;16.50;99.90
20035;DHT22;10178;48.034;9.800;2023-05-10T13:37:23;16.20;99.90
20035;DHT22;10178;48.034;9.800;2023-05-10T13:39:49;16.40;99.90
20035;DHT22;10178;48.034;9.800;2023-05-10T13:42:14;16.60;99.90
20035;DHT22;10178;48.034;9.800;2023-05-10T13:44:40;16.40;99.90
20035;DHT22;10178;48.034;9.800;2023-05-10T13:47:06;16.50;99.90
20035;DHT22;10178;48.034;9.800;2023-05-10T13:49:31;16.70;99.90
20035;DHT22;10178;48.034;9.800;2023-05-10T13:51:57;16.70;99.90
20035;DHT22;10178;48.034;9.800;2023-05-10T13:54:23;16.70;99.90
20035;DHT22;10178;48.034;9.800;2023-05-10T13:56:49;15.80;99.90
20035;DHT22;10178;48.034;9.800;2023-05-10T13:59:15;15.50;99.90
20035;DHT22;10178;48.034;9.800;2023-05-10T14:01:41;15.50;99.90
20035;DHT22;10178;48.034;9.800;2023-05-10T14:04:06;15.50;99.90
20035;DHT22;10178;48.034;9.800;2023-05-10T14:06:35;15.90;99.90
20035;DHT22;10178;48.034;9.800;2023-05-10T14:09:02;15.90;99.90
20035;DHT22;10178;48.034;9.800;2023-05-10T14:11:27;15.80;99.90
20035;DHT22;10178;48.034;9.800;2023-05-10T14:13:53;15.80;99.90
20035;DHT22;10178;48.034;9.800;2023-05-10T14:16:19;15.20;99.90
20035;DHT22;10178;48.034;9.800;2023-05-10T14:18:45;14.70;99.90
20035;DHT22;10178;48.034;9.800;2023-05-10T14:21:11;13.40;99.90
20035;DHT22;10178;48.034;9.800;2023-05-10T14:23:37;12.60;99.90
20035;DHT22;10178;48.034;9.800;2023-05-10T14:26:03;12.00;99.90
20035;DHT22;10178;48.034;9.800;2023-05-10T14:28:29;11.90;99.90
20035;DHT22;10178;48.034;9.800;2023-05-10T14:30:54;12.10;99.90
20035;DHT22;10178;48.034;9.800;2023-05-10T14:33:20;12.20;99.90
20035;DHT22;10178;48.034;9.800;2023-05-10T14:35:46;12.50;99.90
20035;DHT22;10178;48.034;9.800;2023-05-10T14:38:12;12.40;99.90
20035;DHT22;10178;48.034;9.800;2023-05-10T14:40:38;13.20;99.90
20035;DHT22;10178;48.034;9.800;2023-05-10T14:43:04;14.10;99.90
20035;DHT22;10178;48.034;9.800;2023-05-10T14:45:29;14.70;99.90
20035;DHT22;10178;48.034;9.800;2023-05-10T14:47:58;14.80;99.90
20035;DHT22;10178;48.034;9.800;2023-05-10T14:50:24;14.70;99.90
20035;DHT22;10178;48.034;9.800;2023-05-10T14:52:50;15.20;99.90
20035;DHT22;10178;48.034;9.800;2023-05-10T14:55:15;15.90;99.90
20035;DHT22;10178;48.034;9.800;2023-05-10T14:57:41;16.20;99.90
20035;DHT22;10178;48.034;9.800;2023-05-10T15:00:08;16.00;99.90
20035;DHT22;10178;48.034;9.800;2023-05-10T15:02:34;16.10;99.90
20035;DHT22;10178;48.034;9.800;2023-05-10T15:05:00;16.40;99.90
20035;DHT22;10178;48.034;9.800;2023-05-10T15:07:25;16.50;99.90
20035;DHT22;10178;48.034;9.800;2023-05-10T15:09:51;16.30;99.90
20035;DHT22;10178;48.034;9.800;2023-05-10T15:12:17;16.40;99.90
20035;DHT22;10178;48.034;9.800;2023-05-10T15:14:43;16.50;99.90
20035;DHT22;10178;48.034;9.800;2023-05-10T15:17:09;16.50;99.90
20035;DHT22;10178;48.034;9.800;2023-05-10T15:19:35;16.30;99.90
20035;DHT22;10178;48.034;9.800;2023-05-10T15:22:01;15.90;99.90
20035;DHT22;10178;48.034;9.800;2023-05-10T15:24:27;16.10;99.90
20035;DHT22;10178;48.034;9.800;2023-05-10T15:26:53;16.30;99.90
20035;DHT22;10178;48.034;9.800;2023-05-10T15:29:19;16.50;99.90
20035;DHT22;10178;48.034;9.800;2023-05-10T15:31:46;16.30;99.90
20035;DHT22;10178;48.034;9.800;2023-05-10T15:34:13;16.60;99.90
20035;DHT22;10178;48.034;9.800;2023-05-10T15:36:39;16.80;99.90
20035;DHT22;10178;48.034;9.800;2023-05-10T15:39:04;16.90;99.90
20035;DHT22;10178;48.034;9.800;2023-05-10T15:41:30;17.00;99.90
20035;DHT22;10178;48.034;9.800;2023-05-10T15:43:57;17.10;99.90
20035;DHT22;10178;48.034;9.800;2023-05-10T15:46:25;17.10;99.90
20035;DHT22;10178;48.034;9.800;2023-05-10T15:48:50;16.70;99.90
20035;DHT22;10178;48.034;9.800;2023-05-10T15:51:16;16.60;99.90
20035;DHT22;10178;48.034;9.800;2023-05-10T15:53:42;16.40;99.90
20035;DHT22;10178;48.034;9.800;2023-05-10T15:56:07;15.90;99.90
20035;DHT22;10178;48.034;9.800;2023-05-10T15:58:33;15.50;99.90
20035;DHT22;10178;48.034;9.800;2023-05-10T16:00:59;14.70;99.90
20035;DHT22;10178;48.034;9.800;2023-05-10T16:03:25;14.70;99.90